Time;durP1;ratioP1;P1;durP2;ratioP2;P2;SDS_P1;SDS_P2;PMS_P1;PMS_P2;Temp;Humidity;BMP_temperature;BMP_pressure;BME280_temperature;BME280_humidity;BME280_pressure;Samples;Min_cycle;Max_cycle;Signal;HPM_P1;HPM_P2
2021/06/27 00:00:12;;;;;;;5.95;4.70;;;;;;;16.37;100.00;96299.25;4988684;28;20223;-72
2021/06/27 00:02:40;;;;;;;8.50;4.95;;;;;;;16.25;100.00;96297.44;4989187;28;20214;-72
2021/06/27 00:05:09;;;;;;;7.88;5.25;;;;;;;16.13;100.00;96297.25;4988951;28;20203;-71
2021/06/27 00:07:35;;;;;;;8.32;5.55;;;;;;;15.99;100.00;96306.28;4988915;28;20203;-72
2021/06/27 00:10:02;;;;;;;9.02;6.28;;;;;;;15.90;100.00;96301.41;4988633;28;20195;-74
2021/06/27 00:12:29;;;;;;;9.52;5.45;;;;;;;15.82;100.00;96308.78;4989132;28;20211;-74
2021/06/27 00:14:55;;;;;;;7.90;5.43;;;;;;;15.55;100.00;96307.19;4989328;28;20663;-74
2021/06/27 00:17:22;;;;;;;8.85;5.25;;;;;;;15.79;100.00;96304.69;4988609;28;20679;-74
2021/06/27 00:19:50;;;;;;;17.50;5.82;;;;;;;15.79;100.00;96298.59;4988789;28;20234;-74
2021/06/27 00:22:16;;;;;;;11.35;5.30;;;;;;;15.90;100.00;96299.56;4989108;28;20659;-74
2021/06/27 00:24:44;;;;;;;10.95;6.05;;;;;;;15.95;100.00;96294.44;4989023;28;20692;-74
2021/06/27 00:27:11;;;;;;;10.95;5.90;;;;;;;15.91;100.00;96293.25;4991781;28;20721;-74
2021/06/27 00:29:37;;;;;;;11.07;5.75;;;;;;;15.79;100.00;96293.28;4992348;28;20790;-74
2021/06/27 00:32:04;;;;;;;13.25;5.68;;;;;;;15.80;100.00;96286.94;4992333;28;20210;-74
2021/06/27 00:34:31;;;;;;;7.97;5.43;;;;;;;15.83;100.00;96289.16;4992709;28;20211;-74
2021/06/27 00:36:58;;;;;;;11.68;5.97;;;;;;;15.80;100.00;96284.28;4992941;28;20214;-74
2021/06/27 00:39:25;;;;;;;10.73;5.50;;;;;;;15.88;100.00;96293.66;4991928;28;20230;-74
2021/06/27 00:41:51;;;;;;;8.95;5.57;;;;;;;15.83;100.00;96291.81;4992557;28;20223;-74
2021/06/27 00:44:21;;;;;;;8.60;5.72;;;;;;;15.76;100.00;96288.34;4990214;28;20218;-74
2021/06/27 00:46:51;;;;;;;10.10;5.95;;;;;;;15.68;100.00;96288.56;4992538;28;20258;-74
2021/06/27 00:49:17;;;;;;;10.70;6.43;;;;;;;15.70;100.00;96291.84;4992043;28;20223;-74
2021/06/27 00:51:44;;;;;;;11.48;6.57;;;;;;;15.69;100.00;96284.91;4992252;28;20215;-74
2021/06/27 00:54:12;;;;;;;8.95;5.78;;;;;;;15.72;100.00;96292.44;4991853;28;20689;-74
2021/06/27 00:56:38;;;;;;;9.25;6.20;;;;;;;15.71;100.00;96286.31;4992040;28;20295;-74
2021/06/27 00:59:05;;;;;;;12.98;5.78;;;;;;;15.76;100.00;96283.03;4991632;28;20721;-74
2021/06/27 01:01:31;;;;;;;13.27;6.22;;;;;;;15.65;100.00;96286.34;4992048;28;20227;-74
2021/06/27 01:03:58;;;;;;;10.80;5.93;;;;;;;15.62;100.00;96286.75;4992518;28;20651;-74
2021/06/27 01:06:24;;;;;;;10.35;6.63;;;;;;;15.47;100.00;96294.13;4991942;28;20218;-74
2021/06/27 01:08:51;;;;;;;10.30;6.30;;;;;;;15.57;100.00;96299.84;4991712;28;20231;-74
2021/06/27 01:11:19;;;;;;;11.18;6.03;;;;;;;15.49;100.00;96292.06;4991663;28;20254;-74
2021/06/27 01:13:45;;;;;;;10.00;6.30;;;;;;;15.46;100.00;96297.78;4991848;28;20667;-74
2021/06/27 01:16:12;;;;;;;9.18;6.25;;;;;;;15.55;100.00;96296.56;4991802;28;20226;-74
2021/06/27 01:18:38;;;;;;;11.40;6.60;;;;;;;15.58;100.00;96290.81;4991775;28;20223;-74
2021/06/27 01:21:08;;;;;;;8.70;6.30;;;;;;;15.52;100.00;96304.97;4991452;28;20215;-74
2021/06/27 01:23:34;;;;;;;12.93;6.15;;;;;;;15.44;100.00;96305.13;4991913;28;20217;-74
2021/06/27 01:26:01;;;;;;;8.77;5.95;;;;;;;15.52;100.00;96307.59;4991298;28;20551;-74
2021/06/27 01:28:27;;;;;;;11.52;6.45;;;;;;;15.45;100.00;96312.94;4991317;28;20227;-74
2021/06/27 01:30:54;;;;;;;12.30;7.20;;;;;;;15.62;100.00;96311.47;4991379;28;20624;-74
2021/06/27 01:33:22;;;;;;;13.68;5.57;;;;;;;15.35;100.00;96317.81;4991836;28;20203;-74
2021/06/27 01:35:50;;;;;;;10.88;6.13;;;;;;;15.50;100.00;96314.94;4991020;28;20699;-74
2021/06/27 01:38:19;;;;;;;8.50;6.10;;;;;;;15.41;100.00;96303.75;4991043;28;20733;-74
2021/06/27 01:40:46;;;;;;;12.07;6.15;;;;;;;15.34;100.00;96304.75;4990830;28;20702;-74
2021/06/27 01:43:16;;;;;;;12.63;7.03;;;;;;;15.29;100.00;96301.91;4991544;28;20203;-74
2021/06/27 01:45:46;;;;;;;11.23;5.93;;;;;;;15.46;100.00;96303.09;4990836;28;20824;-74
2021/06/27 01:48:13;;;;;;;9.13;6.00;;;;;;;15.49;100.00;96300.88;4991231;28;21192;-74
2021/06/27 01:50:42;;;;;;;9.90;6.13;;;;;;;15.51;100.00;96304.13;4990827;28;20210;-74
2021/06/27 01:53:10;;;;;;;11.00;6.47;;;;;;;15.45;100.00;96307.63;4990882;28;20564;-74
2021/06/27 01:55:38;;;;;;;10.13;7.00;;;;;;;15.52;100.00;96308.41;4991439;28;20547;-74
2021/06/27 01:58:05;;;;;;;13.40;6.43;;;;;;;15.41;100.00;96317.03;4990856;28;20230;-74
2021/06/27 02:00:33;;;;;;;9.35;6.32;;;;;;;15.34;100.00;96312.72;4991102;28;20238;-74
2021/06/27 02:03:01;;;;;;;9.43;6.68;;;;;;;15.30;100.00;96317.63;4991070;28;20204;-74
2021/06/27 02:05:29;;;;;;;10.80;6.93;;;;;;;15.26;100.00;96318.22;4991023;28;20265;-74
2021/06/27 02:07:56;;;;;;;9.43;6.80;;;;;;;15.32;100.00;96317.41;4990343;28;20231;-74
2021/06/27 02:10:25;;;;;;;13.77;6.10;;;;;;;15.41;100.00;96318.84;4991054;28;20203;-74
2021/06/27 02:12:55;;;;;;;17.50;6.28;;;;;;;15.33;100.00;96321.69;4990879;28;20207;-74
2021/06/27 02:15:23;;;;;;;12.10;6.10;;;;;;;15.31;100.00;96305.97;4990726;28;20221;-74
2021/06/27 02:17:55;;;;;;;12.05;6.60;;;;;;;15.37;100.00;96314.97;4990226;28;20227;-74
2021/06/27 02:20:24;;;;;;;10.57;6.07;;;;;;;15.35;100.00;96301.88;4990482;28;20223;-74
2021/06/27 02:22:50;;;;;;;10.00;5.65;;;;;;;15.29;100.00;96291.28;4990475;28;20211;-74
2021/06/27 02:25:17;;;;;;;14.25;6.78;;;;;;;15.13;100.00;96296.94;4990690;28;20200;-74
2021/06/27 02:27:43;;;;;;;14.70;6.88;;;;;;;15.06;100.00;96296.13;4989947;28;20595;-74
2021/06/27 02:30:14;;;;;;;12.25;6.93;;;;;;;15.03;100.00;96291.22;4990930;28;20203;-74
2021/06/27 02:32:41;;;;;;;9.82;6.63;;;;;;;15.13;100.00;96294.28;4990017;28;20290;-74
2021/06/27 02:35:09;;;;;;;10.32;6.63;;;;;;;15.11;100.00;96298.16;4990658;28;20206;-74
2021/06/27 02:37:37;;;;;;;11.45;6.45;;;;;;;15.05;100.00;96299.78;4989832;28;20210;-74
2021/06/27 02:40:06;;;;;;;13.45;6.82;;;;;;;15.04;100.00;96305.31;4989508;28;20210;-74
2021/06/27 02:42:32;;;;;;;16.85;7.63;;;;;;;15.00;100.00;96304.88;4990138;28;20732;-73
2021/06/27 02:44:59;;;;;;;12.57;6.93;;;;;;;15.04;100.00;96302.66;4990355;28;20199;-73
2021/06/27 02:47:27;;;;;;;17.15;8.15;;;;;;;15.02;100.00;96300.22;4989728;28;20211;-73
2021/06/27 02:49:53;;;;;;;17.70;7.97;;;;;;;14.95;100.00;96299.38;4989222;28;20582;-73
2021/06/27 02:52:20;;;;;;;14.52;7.55;;;;;;;14.84;100.00;96296.50;4990168;28;20206;-73
2021/06/27 02:54:46;;;;;;;11.88;7.45;;;;;;;14.91;100.00;96286.72;4990205;28;20200;-73
2021/06/27 02:57:13;;;;;;;16.67;7.82;;;;;;;14.80;100.00;96285.50;4989416;28;20682;-73
2021/06/27 02:59:39;;;;;;;17.52;8.38;;;;;;;14.86;100.00;96284.66;4989447;28;20234;-72
2021/06/27 03:02:06;;;;;;;11.85;7.18;;;;;;;14.90;100.00;96275.28;4989583;28;20227;-73
2021/06/27 03:04:34;;;;;;;11.70;7.20;;;;;;;14.92;100.00;96277.75;4990067;28;20210;-73
2021/06/27 03:07:01;;;;;;;17.05;7.95;;;;;;;14.94;100.00;96271.22;4989553;28;20851;-73
2021/06/27 03:09:28;;;;;;;15.13;8.23;;;;;;;14.83;100.00;96268.34;4990046;28;20227;-74
2021/06/27 03:11:56;;;;;;;15.38;9.15;;;;;;;14.76;100.00;96263.00;4989341;28;20203;-74
2021/06/27 03:14:23;;;;;;;15.27;10.07;;;;;;;14.80;100.00;96248.34;4989367;28;20230;-74
2021/06/27 03:16:51;;;;;;;14.32;9.55;;;;;;;14.87;100.00;96249.16;4988779;28;20206;-74
2021/06/27 03:19:19;;;;;;;17.73;8.70;;;;;;;14.97;100.00;96238.97;4988959;28;20623;-74
2021/06/27 03:21:48;;;;;;;16.73;8.88;;;;;;;14.93;100.00;96242.22;4989049;28;20881;-74
2021/06/27 03:24:15;;;;;;;17.30;9.40;;;;;;;14.79;100.00;96244.06;4989222;28;20222;-74
2021/06/27 03:26:43;;;;;;;19.38;10.07;;;;;;;14.75;100.00;96240.19;4989322;28;20207;-74
2021/06/27 03:29:11;;;;;;;19.90;10.43;;;;;;;14.76;100.00;96246.28;4988778;28;20222;-74
2021/06/27 03:31:38;;;;;;;19.80;10.45;;;;;;;14.82;100.00;96248.94;4989341;28;20207;-74
2021/06/27 03:34:06;;;;;;;17.33;9.55;;;;;;;14.98;100.00;96256.53;4989043;28;20214;-74
2021/06/27 03:36:34;;;;;;;16.60;9.18;;;;;;;15.15;100.00;96257.75;4989200;28;20580;-74
2021/06/27 03:39:06;;;;;;;16.73;9.68;;;;;;;15.22;100.00;96258.59;4988840;28;20226;-74
2021/06/27 03:41:37;;;;;;;16.90;9.25;;;;;;;15.34;100.00;96252.47;4988970;28;20257;-74
2021/06/27 03:44:05;;;;;;;15.43;9.07;;;;;;;15.29;100.00;96262.88;4989101;28;20214;-74
2021/06/27 03:46:33;;;;;;;13.38;9.20;;;;;;;15.37;100.00;96251.22;4989201;28;20219;-74
2021/06/27 03:49:01;;;;;;;16.48;9.00;;;;;;;15.41;100.00;96255.09;4988962;28;20281;-74
2021/06/27 03:51:28;;;;;;;17.52;8.80;;;;;;;15.55;100.00;96254.88;4988602;28;20241;-74
2021/06/27 03:53:56;;;;;;;11.45;8.02;;;;;;;15.65;100.00;96265.09;4988656;28;20277;-74
2021/06/27 03:56:25;;;;;;;15.25;8.57;;;;;;;15.71;100.00;96251.78;4988415;28;20203;-74
2021/06/27 03:58:54;;;;;;;17.05;10.00;;;;;;;15.73;100.00;96247.06;4987963;28;20714;-74
2021/06/27 04:01:22;;;;;;;13.60;8.77;;;;;;;15.84;100.00;96245.63;4990952;28;20795;-74
2021/06/27 04:03:50;;;;;;;19.63;9.73;;;;;;;15.88;100.00;96240.50;4993100;28;20249;-74
2021/06/27 04:06:18;;;;;;;14.05;9.38;;;;;;;16.01;100.00;96251.09;4992584;28;20199;-74
2021/06/27 04:08:45;;;;;;;18.05;10.45;;;;;;;16.06;100.00;96247.78;4992512;28;20262;-74
2021/06/27 04:11:13;;;;;;;15.52;10.00;;;;;;;16.09;100.00;96242.06;4992118;28;20207;-74
2021/06/27 04:13:42;;;;;;;17.13;10.35;;;;;;;16.06;100.00;96229.19;4992773;28;20253;-74
2021/06/27 04:16:10;;;;;;;19.50;10.80;;;;;;;16.08;100.00;96233.25;4992843;28;20210;-74
2021/06/27 04:18:38;;;;;;;16.17;9.80;;;;;;;16.15;100.00;96236.72;4992363;28;20266;-74
2021/06/27 04:21:07;;;;;;;16.33;9.98;;;;;;;16.19;100.00;96229.97;4992264;28;20682;-74
2021/06/27 04:23:38;;;;;;;15.25;9.80;;;;;;;16.20;100.00;96228.91;4992816;28;20217;-74
2021/06/27 04:26:06;;;;;;;19.02;9.88;;;;;;;16.26;100.00;96222.78;4992488;28;20265;-74
2021/06/27 04:28:34;;;;;;;16.65;9.73;;;;;;;16.28;100.00;96218.09;4992408;28;20231;-74
2021/06/27 04:31:03;;;;;;;15.43;9.60;;;;;;;16.33;100.00;96223.59;4992321;28;20748;-74
2021/06/27 04:33:30;;;;;;;15.40;10.77;;;;;;;16.37;100.00;96221.28;4992683;28;20301;-74
2021/06/27 04:35:58;;;;;;;19.45;10.40;;;;;;;16.47;100.00;96222.50;4991783;28;20215;-74
2021/06/27 04:38:26;;;;;;;17.25;10.55;;;;;;;16.52;100.00;96210.16;4992121;28;20235;-74
2021/06/27 04:40:54;;;;;;;15.93;10.30;;;;;;;16.57;100.00;96217.50;4991669;28;20238;-74
2021/06/27 04:43:21;;;;;;;19.92;10.57;;;;;;;16.67;100.00;96225.84;4992114;28;20686;-74
2021/06/27 04:45:49;;;;;;;19.67;10.60;;;;;;;16.75;100.00;96229.06;4991994;28;20308;-74
2021/06/27 04:48:18;;;;;;;16.95;10.63;;;;;;;16.81;100.00;96230.03;4991737;28;20806;-74
2021/06/27 04:50:48;;;;;;;15.90;10.65;;;;;;;16.86;100.00;96230.22;4992233;28;20223;-74
2021/06/27 04:53:16;;;;;;;15.75;9.93;;;;;;;16.98;100.00;96236.47;4991914;28;20636;-74
2021/06/27 04:55:44;;;;;;;13.90;9.63;;;;;;;16.97;100.00;96248.97;4992061;28;20211;-74
2021/06/27 04:58:12;;;;;;;15.40;10.65;;;;;;;17.08;100.00;96247.44;4991604;28;20254;-74
2021/06/27 05:00:39;;;;;;;17.85;10.90;;;;;;;17.07;100.00;96253.81;4991954;28;20211;-74
2021/06/27 05:03:06;;;;;;;16.80;10.38;;;;;;;17.06;100.00;96254.84;4992129;28;20277;-74
2021/06/27 05:05:35;;;;;;;14.57;10.02;;;;;;;17.07;100.00;96248.47;4992234;28;20203;-74
2021/06/27 05:08:01;;;;;;;19.25;10.43;;;;;;;17.07;100.00;96253.81;4991512;28;20215;-74
2021/06/27 05:10:28;;;;;;;15.00;10.15;;;;;;;17.10;100.00;96239.03;4992125;28;20211;-74
2021/06/27 05:12:54;;;;;;;14.25;9.88;;;;;;;17.19;100.00;96247.56;4991276;28;20209;-74
2021/06/27 05:15:21;;;;;;;17.20;9.52;;;;;;;17.29;100.00;96254.06;4990983;28;20214;-74
2021/06/27 05:17:47;;;;;;;14.52;9.23;;;;;;;17.45;100.00;96263.34;4991484;28;20231;-74
2021/06/27 05:20:14;;;;;;;16.27;10.40;;;;;;;17.49;100.00;96251.22;4991946;28;20207;-74
2021/06/27 05:22:42;;;;;;;15.23;9.48;;;;;;;17.52;100.00;96259.59;4991569;28;20231;-74
2021/06/27 05:25:10;;;;;;;12.63;9.35;;;;;;;17.55;100.00;96263.69;4991283;28;20207;-74
2021/06/27 05:27:37;;;;;;;12.82;9.35;;;;;;;17.67;100.00;96257.41;4991229;28;20511;-74
2021/06/27 05:30:05;;;;;;;14.90;9.80;;;;;;;17.71;100.00;96255.94;4991076;28;20210;-74
2021/06/27 05:32:31;;;;;;;12.20;9.60;;;;;;;17.70;100.00;96251.63;4991370;28;20203;-75
2021/06/27 05:34:58;;;;;;;14.43;9.77;;;;;;;17.71;100.00;96248.75;4991823;28;20210;-74
2021/06/27 05:37:24;;;;;;;16.38;9.10;;;;;;;17.84;100.00;96245.94;4991169;28;20211;-73
2021/06/27 05:39:52;;;;;;;14.40;9.82;;;;;;;17.90;100.00;96249.59;4992141;28;20313;-73
2021/06/27 05:42:20;;;;;;;10.55;7.32;;;;;;;18.07;100.00;96246.09;4991023;28;20238;-74
2021/06/27 05:44:46;;;;;;;13.00;9.15;;;;;;;18.07;100.00;96253.28;4991422;28;20261;-74
2021/06/27 05:47:13;;;;;;;13.75;9.48;;;;;;;18.10;100.00;96248.34;4990295;28;20577;-74
2021/06/27 05:49:40;;;;;;;11.43;8.55;;;;;;;18.17;100.00;96248.25;4989446;28;20219;-72
2021/06/27 05:52:07;;;;;;;12.50;8.73;;;;;;;18.23;100.00;96250.88;4990609;28;20211;-72
2021/06/27 05:54:33;;;;;;;13.25;9.38;;;;;;;18.28;100.00;96245.69;4990901;28;20210;-72
2021/06/27 05:57:01;;;;;;;13.23;9.32;;;;;;;18.37;100.00;96241.69;4990972;28;20226;-72
2021/06/27 05:59:28;;;;;;;10.35;7.93;;;;;;;18.51;100.00;96243.94;4990623;28;20245;-72
2021/06/27 06:01:54;;;;;;;15.13;8.95;;;;;;;18.63;100.00;96241.31;4991330;28;20227;-72
2021/06/27 06:04:21;;;;;;;12.35;8.70;;;;;;;18.56;100.00;96241.41;4991055;28;20218;-72
2021/06/27 06:06:48;;;;;;;14.43;9.55;;;;;;;18.70;100.00;96242.88;4991503;28;20211;-72
2021/06/27 06:09:14;;;;;;;11.38;8.13;;;;;;;18.85;100.00;96237.94;4990596;28;20609;-72
2021/06/27 06:11:41;;;;;;;15.63;8.45;;;;;;;18.87;100.00;96243.84;4991122;28;20199;-72
2021/06/27 06:14:08;;;;;;;11.40;7.75;;;;;;;19.05;100.00;96238.44;4990276;28;20211;-72
2021/06/27 06:16:35;;;;;;;12.57;8.85;;;;;;;18.99;100.00;96234.00;4990950;28;20541;-72
2021/06/27 06:19:01;;;;;;;9.55;7.20;;;;;;;19.08;100.00;96240.66;4990100;28;20223;-72
2021/06/27 06:21:28;;;;;;;12.50;9.10;;;;;;;19.10;100.00;96242.06;4991239;28;20207;-72
2021/06/27 06:23:54;;;;;;;11.02;8.25;;;;;;;19.11;100.00;96240.25;4989783;28;20207;-72
2021/06/27 06:26:21;;;;;;;17.65;9.38;;;;;;;18.99;100.00;96232.16;4989910;28;20679;-72
2021/06/27 06:28:48;;;;;;;16.58;8.95;;;;;;;18.93;100.00;96234.94;4989938;28;20234;-72
2021/06/27 06:31:16;;;;;;;13.85;7.68;;;;;;;19.07;100.00;96237.19;4990759;28;20203;-72
2021/06/27 06:33:42;;;;;;;13.45;9.52;;;;;;;19.00;100.00;96240.97;4990494;28;20285;-72
2021/06/27 06:36:09;;;;;;;13.98;9.20;;;;;;;18.87;100.00;96233.16;4990491;28;20207;-72
2021/06/27 06:38:36;;;;;;;13.50;9.20;;;;;;;18.90;100.00;96238.03;4989920;28;20223;-72
2021/06/27 06:41:02;;;;;;;13.70;8.60;;;;;;;19.01;100.00;96234.59;4990005;28;20619;-72
2021/06/27 06:43:29;;;;;;;10.50;8.00;;;;;;;19.14;100.00;96239.78;4990200;28;20238;-72
2021/06/27 06:45:56;;;;;;;12.38;9.32;;;;;;;19.16;100.00;96235.03;4989984;28;20204;-72
2021/06/27 06:48:24;;;;;;;13.82;8.77;;;;;;;19.30;100.00;96241.78;4990264;28;20246;-72
2021/06/27 06:50:51;;;;;;;10.32;7.45;;;;;;;19.58;100.00;96240.06;4989159;28;20218;-71
2021/06/27 06:53:17;;;;;;;12.13;7.30;;;;;;;19.77;100.00;96238.91;4990410;28;20195;-71
2021/06/27 06:55:44;;;;;;;10.48;7.82;;;;;;;19.88;100.00;96246.09;4989525;28;20203;-72
2021/06/27 06:58:10;;;;;;;11.75;7.80;;;;;;;19.76;100.00;96248.75;4989634;28;20230;-71
2021/06/27 07:00:37;;;;;;;12.18;8.98;;;;;;;19.70;100.00;96248.88;4990038;28;20206;-71
2021/06/27 07:03:03;;;;;;;12.20;8.15;;;;;;;19.71;100.00;96248.66;4989397;28;20249;-72
2021/06/27 07:05:31;;;;;;;8.88;6.90;;;;;;;19.91;100.00;96241.13;4989231;28;20300;-72
2021/06/27 07:07:58;;;;;;;12.85;8.23;;;;;;;20.08;100.00;96247.38;4989107;28;20222;-72
2021/06/27 07:10:24;;;;;;;14.90;9.48;;;;;;;20.09;100.00;96256.22;4989203;28;20573;-72
2021/06/27 07:12:51;;;;;;;17.52;7.90;;;;;;;20.15;100.00;96242.72;4989774;28;20210;-72
2021/06/27 07:15:17;;;;;;;11.05;8.02;;;;;;;20.22;100.00;96243.41;4989327;28;20203;-71
2021/06/27 07:17:44;;;;;;;12.43;7.97;;;;;;;20.35;100.00;96243.13;4989322;28;20203;-72
2021/06/27 07:20:12;;;;;;;10.35;6.68;;;;;;;20.45;100.00;96238.78;4987293;28;20571;-72
2021/06/27 07:22:40;;;;;;;13.50;7.63;;;;;;;20.56;100.00;96234.47;4987877;28;20220;-71
2021/06/27 07:25:08;;;;;;;14.23;7.70;;;;;;;20.70;100.00;96233.13;4988171;28;20207;-72
2021/06/27 07:27:35;;;;;;;10.55;7.32;;;;;;;20.66;100.00;96234.63;4989709;28;20203;-72
2021/06/27 07:30:01;;;;;;;10.55;7.63;;;;;;;20.75;100.00;96233.22;4989752;28;20210;-72
2021/06/27 07:32:28;;;;;;;10.70;7.35;;;;;;;20.77;100.00;96225.78;4989555;28;20214;-71
2021/06/27 07:34:54;;;;;;;10.32;7.43;;;;;;;20.87;100.00;96222.25;4988955;28;20214;-71
2021/06/27 07:37:21;;;;;;;9.70;6.68;;;;;;;20.89;100.00;96222.00;4988404;28;20208;-71
2021/06/27 07:39:49;;;;;;;8.50;6.30;;;;;;;21.02;100.00;96217.16;4987625;28;20223;-71
2021/06/27 07:42:15;;;;;;;10.13;7.85;;;;;;;21.12;100.00;96220.00;4988937;28;20227;-72
2021/06/27 07:44:42;;;;;;;9.70;6.63;;;;;;;21.17;100.00;96220.09;4989466;28;20576;-72
2021/06/27 07:47:08;;;;;;;10.82;6.35;;;;;;;21.37;100.00;96216.94;4988559;28;20207;-71
2021/06/27 07:49:35;;;;;;;8.63;6.25;;;;;;;21.55;100.00;96215.66;4988234;28;20219;-72
2021/06/27 07:52:01;;;;;;;6.60;4.90;;;;;;;21.58;93.54;96217.03;4989306;28;20202;-71
2021/06/27 07:54:28;;;;;;;7.47;4.30;;;;;;;21.68;91.71;96220.69;4988242;28;20222;-72
2021/06/27 07:56:56;;;;;;;6.95;4.90;;;;;;;21.72;91.10;96229.06;4988626;28;20203;-72
2021/06/27 07:59:22;;;;;;;5.90;4.68;;;;;;;21.66;93.97;96227.34;4988380;28;20223;-71
2021/06/27 08:01:49;;;;;;;6.82;5.35;;;;;;;21.58;99.41;96227.75;4989293;28;20246;-72
2021/06/27 08:04:15;;;;;;;7.95;5.50;;;;;;;21.72;92.60;96232.53;4989434;28;20222;-71
2021/06/27 08:06:42;;;;;;;9.68;5.45;;;;;;;22.05;93.48;96222.56;4989409;28;20211;-71
2021/06/27 08:09:08;;;;;;;6.90;4.82;;;;;;;22.05;93.63;96222.56;4988547;28;20234;-73
2021/06/27 08:11:34;;;;;;;7.47;5.70;;;;;;;21.91;94.51;96225.03;4989221;28;20211;-73
2021/06/27 08:14:03;;;;;;;8.50;4.93;;;;;;;22.13;93.53;96219.47;4988524;28;20198;-73
2021/06/27 08:16:29;;;;;;;5.78;4.38;;;;;;;22.19;91.57;96226.50;4988538;28;20222;-73
2021/06/27 08:18:56;;;;;;;8.55;5.00;;;;;;;22.31;89.31;96219.19;4987426;28;20303;-73
2021/06/27 08:21:22;;;;;;;9.18;4.97;;;;;;;22.39;91.61;96224.13;4987372;28;20214;-73
2021/06/27 08:23:49;;;;;;;7.70;4.25;;;;;;;22.56;90.12;96224.84;4988923;28;20227;-73
2021/06/27 08:26:16;;;;;;;5.22;4.07;;;;;;;22.66;84.67;96224.97;4987313;28;20206;-73
2021/06/27 08:28:44;;;;;;;5.78;4.45;;;;;;;22.37;87.06;96223.53;4988538;28;20230;-73
2021/06/27 08:31:11;;;;;;;6.85;4.80;;;;;;;22.42;87.31;96228.97;4989220;28;20246;-73
2021/06/27 08:33:38;;;;;;;7.68;4.22;;;;;;;22.70;90.73;96212.66;4988879;28;20240;-73
2021/06/27 08:36:05;;;;;;;11.43;4.53;;;;;;;22.82;94.82;96216.00;4989642;28;20208;-73
2021/06/27 08:38:32;;;;;;;5.15;4.43;;;;;;;22.88;88.50;96212.31;4987878;28;20223;-72
2021/06/27 08:41:00;;;;;;;5.22;4.28;;;;;;;22.90;88.38;96210.19;4988537;28;21068;-73
2021/06/27 08:43:30;;;;;;;5.47;4.28;;;;;;;22.97;92.17;96210.78;4987547;28;20238;-72
2021/06/27 08:45:57;;;;;;;4.97;4.10;;;;;;;23.16;87.45;96214.75;4988467;28;20207;-72
2021/06/27 08:48:26;;;;;;;5.15;4.20;;;;;;;23.30;84.21;96212.19;4991459;28;20219;-73
2021/06/27 08:50:55;;;;;;;5.68;4.32;;;;;;;23.51;91.11;96214.00;4992052;28;20697;-73
2021/06/27 08:53:22;;;;;;;5.72;3.53;;;;;;;23.51;88.30;96208.63;4991018;28;20211;-72
2021/06/27 08:56:04;;;;;;;7.88;3.78;;;;;;;23.52;83.49;96209.41;4992272;28;20737;-73
2021/06/27 08:58:32;;;;;;;4.18;3.38;;;;;;;23.48;78.26;96208.31;4991512;28;20336;-72
2021/06/27 09:00:59;;;;;;;5.07;3.63;;;;;;;23.41;80.37;96203.16;4992382;28;20277;-72
2021/06/27 09:03:27;;;;;;;4.55;3.45;;;;;;;23.67;84.10;96190.69;4991722;28;20731;-73
2021/06/27 09:05:54;;;;;;;4.78;3.28;;;;;;;23.76;79.29;96189.19;4992224;28;20203;-73
2021/06/27 09:08:22;;;;;;;4.88;3.55;;;;;;;23.87;79.74;96191.66;4989584;28;20258;-72
2021/06/27 09:10:50;;;;;;;3.40;2.85;;;;;;;23.91;77.00;96187.38;4979781;28;20239;-72
2021/06/27 09:13:18;;;;;;;5.72;2.90;;;;;;;24.04;78.62;96193.13;4978138;28;20250;-72
2021/06/27 09:15:49;;;;;;;4.28;2.60;;;;;;;24.15;70.77;96186.69;4979858;28;20743;-73
2021/06/27 09:18:30;;;;;;;6.68;2.72;;;;;;;24.20;79.08;96194.00;4976421;28;20718;-73
2021/06/27 09:20:58;;;;;;;4.70;3.08;;;;;;;24.25;75.61;96191.31;4980198;28;20560;-72
2021/06/27 09:23:38;;;;;;;5.20;2.97;;;;;;;24.49;72.90;96203.31;4978978;28;20227;-73
2021/06/27 09:26:06;;;;;;;3.95;3.00;;;;;;;24.54;71.82;96206.81;4980180;28;20203;-73
2021/06/27 09:28:48;;;;;;;4.35;3.30;;;;;;;24.47;69.74;96208.97;4978400;28;20231;-73
2021/06/27 09:31:37;;;;;;;6.47;2.70;;;;;;;24.35;68.18;96211.06;4980077;28;20214;-73
2021/06/27 09:34:08;;;;;;;3.42;2.70;;;;;;;24.51;70.55;96199.28;4978724;28;20365;-73
2021/06/27 09:36:39;;;;;;;4.63;2.75;;;;;;;24.56;67.67;96203.88;4979475;28;20678;-72
2021/06/27 09:39:13;;;;;;;3.20;2.60;;;;;;;24.83;69.49;96208.81;4977889;28;20223;-73
2021/06/27 09:41:50;;;;;;;3.55;2.67;;;;;;;24.93;65.25;96219.63;4978925;28;20236;-72
2021/06/27 09:44:18;;;;;;;4.20;2.60;;;;;;;25.03;65.66;96214.25;4978614;28;20222;-73
2021/06/27 09:46:49;;;;;;;3.92;2.45;;;;;;;24.87;66.80;96201.00;4978594;28;20254;-73
2021/06/27 09:49:28;;;;;;;3.28;2.70;;;;;;;25.17;63.70;96204.59;4977948;28;20326;-73
2021/06/27 09:51:57;;;;;;;3.05;2.67;;;;;;;25.25;61.99;96196.78;4978639;28;20218;-73
2021/06/27 09:54:26;;;;;;;3.33;2.22;;;;;;;25.29;62.30;96197.03;4978531;28;20814;-73
2021/06/27 09:56:54;;;;;;;4.57;2.80;;;;;;;25.39;63.36;96197.06;4977740;28;20727;-73
2021/06/27 09:59:32;;;;;;;3.00;2.70;;;;;;;25.51;64.29;96194.88;4976896;28;20326;-73
2021/06/27 10:02:00;;;;;;;3.10;2.80;;;;;;;25.56;68.04;96195.72;4978645;28;20226;-73
2021/06/27 10:04:32;;;;;;;4.10;2.70;;;;;;;25.64;63.24;96192.47;4977399;28;20231;-73
2021/06/27 10:07:00;;;;;;;3.28;2.65;;;;;;;25.85;62.87;96194.06;4977530;28;20211;-73
2021/06/27 10:09:32;;;;;;;6.50;4.82;;;;;;;25.89;62.64;96187.88;4977982;28;20322;-73
2021/06/27 10:12:04;;;;;;;7.68;5.18;;;;;;;26.02;61.21;96176.50;4978445;28;20671;-73
2021/06/27 10:14:35;;;;;;;8.10;5.78;;;;;;;26.22;62.07;96173.75;4978474;28;20629;-73
2021/06/27 10:17:04;;;;;;;9.65;5.63;;;;;;;26.24;61.23;96179.66;4974287;28;20218;-73
2021/06/27 10:19:34;;;;;;;9.88;7.32;;;;;;;26.25;58.38;96181.28;4976964;28;20231;-73
2021/06/27 10:22:04;;;;;;;147.88;62.28;;;;;;;26.30;59.91;96177.75;4976690;28;20365;-72
2021/06/27 10:24:32;;;;;;;5.57;3.42;;;;;;;26.33;61.10;96171.81;4975790;28;20254;-73
2021/06/27 10:27:02;;;;;;;5.60;4.03;;;;;;;26.46;59.63;96166.63;4976908;28;20219;-73
2021/06/27 10:29:33;;;;;;;13.00;8.32;;;;;;;26.56;61.65;96164.69;4977652;28;20232;-73
2021/06/27 10:32:01;;;;;;;15.68;9.90;;;;;;;26.66;60.19;96161.94;4978438;28;20215;-73
2021/06/27 10:34:29;;;;;;;50.40;24.75;;;;;;;26.97;63.34;96159.91;4978180;28;20301;-72
2021/06/27 10:37:06;;;;;;;14.90;9.88;;;;;;;27.04;57.75;96163.09;4977621;28;20219;-73
2021/06/27 10:39:35;;;;;;;6.70;4.90;;;;;;;26.73;58.58;96161.63;4977072;28;20321;-74
2021/06/27 10:42:06;;;;;;;4.22;2.97;;;;;;;26.60;58.33;96151.44;4978318;28;20270;-72
2021/06/27 10:44:58;;;;;;;4.68;2.90;;;;;;;26.52;60.18;96155.53;4977940;28;20766;-74
2021/06/27 10:47:32;;;;;;;4.13;2.70;;;;;;;26.46;58.11;96150.41;4978100;28;20346;-74
2021/06/27 10:50:08;;;;;;;5.45;2.70;;;;;;;26.55;61.28;96148.75;4979343;28;20219;-74
2021/06/27 10:53:03;;;;;;;3.00;2.40;;;;;;;26.48;58.55;96153.66;4976361;28;20235;-74
2021/06/27 10:55:33;;;;;;;3.08;2.60;;;;;;;26.56;60.66;96153.06;4978590;28;20233;-74
2021/06/27 10:58:06;;;;;;;3.05;2.63;;;;;;;26.59;59.65;96149.81;4978962;28;21249;-74
2021/06/27 11:01:02;;;;;;;4.65;2.47;;;;;;;26.50;57.95;96146.06;4978601;28;20294;-74
2021/06/27 11:03:34;;;;;;;3.67;2.60;;;;;;;26.62;61.51;96144.66;4977583;28;20646;-74
2021/06/27 11:06:03;;;;;;;4.22;2.90;;;;;;;26.56;60.38;96139.56;4977799;28;20219;-74
2021/06/27 11:08:41;;;;;;;2.80;2.53;;;;;;;26.72;61.82;96133.00;4976469;28;20223;-74
2021/06/27 11:11:12;;;;;;;4.65;2.72;;;;;;;26.97;58.57;96138.25;4976806;28;20207;-74
2021/06/27 11:13:41;;;;;;;3.13;2.53;;;;;;;27.19;55.76;96125.94;4977533;28;20434;-74
2021/06/27 11:16:23;;;;;;;2.58;2.38;;;;;;;27.06;57.51;96120.34;4975092;28;20203;-74
2021/06/27 11:18:53;;;;;;;3.70;2.65;;;;;;;27.04;56.15;96128.75;4976836;28;20230;-75
2021/06/27 11:21:26;;;;;;;2.90;2.33;;;;;;;27.04;57.27;96119.81;4976925;28;20593;-74
2021/06/27 11:24:09;;;;;;;3.85;2.40;;;;;;;26.65;59.50;96129.78;4977349;28;20262;-74
2021/06/27 11:26:50;;;;;;;5.13;2.30;;;;;;;26.51;57.72;96117.97;4976539;28;20207;-73